sensor_id;sensor_type;location;lat;lon;timestamp;P1;durP1;ratioP1;P2;durP2;ratioP2
36863;SDS011;22793;51.148;6.948;2023-05-07T10:35:02;46.80;;;28.63;;
36863;SDS011;22793;51.148;6.948;2023-05-07T10:40:48;49.67;;;27.17;;
36863;SDS011;22793;51.148;6.948;2023-05-07T10:46:19;53.77;;;29.73;;
36863;SDS011;22793;51.148;6.948;2023-05-07T10:54:38;44.97;;;27.27;;
36863;SDS011;22793;51.148;6.948;2023-05-07T10:57:49;51.53;;;26.33;;
36863;SDS011;22793;51.148;6.948;2023-05-07T11:00:47;44.40;;;26.27;;
36863;SDS011;22793;51.148;6.948;2023-05-07T11:05:25;46.90;;;26.70;;
36863;SDS011;22793;51.148;6.948;2023-05-07T11:07:55;41.70;;;25.63;;
36863;SDS011;22793;51.148;6.948;2023-05-07T11:10:21;45.23;;;27.00;;
36863;SDS011;22793;51.148;6.948;2023-05-07T11:12:47;44.17;;;26.23;;
36863;SDS011;22793;51.148;6.948;2023-05-07T11:15:13;48.47;;;26.13;;
36863;SDS011;22793;51.148;6.948;2023-05-07T11:18:59;41.03;;;25.27;;
36863;SDS011;22793;51.148;6.948;2023-05-07T11:21:38;40.50;;;22.70;;
36863;SDS011;22793;51.148;6.948;2023-05-07T11:24:08;40.93;;;23.93;;
36863;SDS011;22793;51.148;6.948;2023-05-07T11:26:45;38.97;;;24.73;;
36863;SDS011;22793;51.148;6.948;2023-05-07T11:29:12;40.03;;;24.30;;
36863;SDS011;22793;51.148;6.948;2023-05-07T11:31:43;38.33;;;24.77;;
36863;SDS011;22793;51.148;6.948;2023-05-07T11:34:12;41.43;;;24.50;;
36863;SDS011;22793;51.148;6.948;2023-05-07T11:36:41;36.07;;;22.93;;
36863;SDS011;22793;51.148;6.948;2023-05-07T11:39:25;39.37;;;23.03;;
36863;SDS011;22793;51.148;6.948;2023-05-07T11:41:56;37.57;;;22.97;;
36863;SDS011;22793;51.148;6.948;2023-05-07T11:44:22;40.83;;;23.27;;
36863;SDS011;22793;51.148;6.948;2023-05-07T11:46:48;40.27;;;23.77;;
36863;SDS011;22793;51.148;6.948;2023-05-07T11:49:14;38.80;;;23.33;;
36863;SDS011;22793;51.148;6.948;2023-05-07T11:51:40;36.70;;;22.90;;
36863;SDS011;22793;51.148;6.948;2023-05-07T11:54:07;35.73;;;21.63;;
36863;SDS011;22793;51.148;6.948;2023-05-07T11:56:36;35.77;;;21.87;;
36863;SDS011;22793;51.148;6.948;2023-05-07T11:59:02;35.10;;;22.40;;
36863;SDS011;22793;51.148;6.948;2023-05-07T12:52:58;35.00;;;19.23;;
36863;SDS011;22793;51.148;6.948;2023-05-07T13:13:53;1667.77;;;812.37;;
36863;SDS011;22793;51.148;6.948;2023-05-07T13:16:19;1665.73;;;822.90;;
36863;SDS011;22793;51.148;6.948;2023-05-07T13:18:45;1656.40;;;817.30;;
36863;SDS011;22793;51.148;6.948;2023-05-07T13:21:10;1615.20;;;810.70;;
36863;SDS011;22793;51.148;6.948;2023-05-07T13:23:38;1622.10;;;805.90;;
36863;SDS011;22793;51.148;6.948;2023-05-07T13:26:03;1584.47;;;805.00;;
36863;SDS011;22793;51.148;6.948;2023-05-07T13:28:29;1592.73;;;800.47;;
36863;SDS011;22793;51.148;6.948;2023-05-07T13:30:55;1552.40;;;800.57;;
36863;SDS011;22793;51.148;6.948;2023-05-07T13:33:20;1527.90;;;791.67;;
36863;SDS011;22793;51.148;6.948;2023-05-07T13:35:46;1516.40;;;788.13;;
36863;SDS011;22793;51.148;6.948;2023-05-07T13:38:12;1514.87;;;788.50;;
36863;SDS011;22793;51.148;6.948;2023-05-07T13:40:37;1519.70;;;787.17;;
36863;SDS011;22793;51.148;6.948;2023-05-07T13:43:05;1455.03;;;768.90;;
36863;SDS011;22793;51.148;6.948;2023-05-07T13:45:31;1427.90;;;764.90;;
36863;SDS011;22793;51.148;6.948;2023-05-07T13:47:56;1195.67;;;676.77;;
36863;SDS011;22793;51.148;6.948;2023-05-07T13:50:22;1091.20;;;633.97;;
36863;SDS011;22793;51.148;6.948;2023-05-07T13:52:48;1129.97;;;651.47;;
36863;SDS011;22793;51.148;6.948;2023-05-07T13:55:20;1028.40;;;599.87;;
36863;SDS011;22793;51.148;6.948;2023-05-07T13:57:46;927.97;;;558.07;;
36863;SDS011;22793;51.148;6.948;2023-05-07T14:00:12;872.70;;;532.60;;
36863;SDS011;22793;51.148;6.948;2023-05-07T14:02:39;834.80;;;501.77;;
36863;SDS011;22793;51.148;6.948;2023-05-07T14:05:05;808.40;;;485.47;;
36863;SDS011;22793;51.148;6.948;2023-05-07T14:07:31;814.80;;;484.50;;
36863;SDS011;22793;51.148;6.948;2023-05-07T14:09:57;746.67;;;448.30;;
36863;SDS011;22793;51.148;6.948;2023-05-07T14:12:23;721.60;;;438.13;;
36863;SDS011;22793;51.148;6.948;2023-05-07T14:14:49;704.93;;;421.37;;
36863;SDS011;22793;51.148;6.948;2023-05-07T14:17:18;689.90;;;407.30;;
36863;SDS011;22793;51.148;6.948;2023-05-07T14:21:54;760.83;;;464.80;;
36863;SDS011;22793;51.148;6.948;2023-05-07T14:26:01;692.80;;;418.93;;
36863;SDS011;22793;51.148;6.948;2023-05-07T15:18:27;11.00;;;4.80;;
36863;SDS011;22793;51.148;6.948;2023-05-07T15:20:52;8.17;;;4.83;;
36863;SDS011;22793;51.148;6.948;2023-05-07T15:23:18;11.87;;;5.03;;
36863;SDS011;22793;51.148;6.948;2023-05-07T15:25:43;8.43;;;5.27;;
36863;SDS011;22793;51.148;6.948;2023-05-07T15:28:09;12.63;;;5.37;;
36863;SDS011;22793;51.148;6.948;2023-05-07T15:30:35;8.10;;;4.63;;
36863;SDS011;22793;51.148;6.948;2023-05-07T15:33:01;10.13;;;4.60;;
36863;SDS011;22793;51.148;6.948;2023-05-07T15:35:27;9.00;;;4.70;;
36863;SDS011;22793;51.148;6.948;2023-05-07T15:37:53;9.27;;;4.60;;
36863;SDS011;22793;51.148;6.948;2023-05-07T15:40:18;7.60;;;4.47;;
36863;SDS011;22793;51.148;6.948;2023-05-07T15:42:44;8.37;;;4.10;;
36863;SDS011;22793;51.148;6.948;2023-05-07T15:45:10;6.30;;;5.03;;
36863;SDS011;22793;51.148;6.948;2023-05-07T15:47:36;5.20;;;4.23;;
36863;SDS011;22793;51.148;6.948;2023-05-07T15:50:02;10.60;;;5.20;;
36863;SDS011;22793;51.148;6.948;2023-05-07T15:52:28;7.93;;;4.60;;
36863;SDS011;22793;51.148;6.948;2023-05-07T15:54:54;7.27;;;4.63;;
36863;SDS011;22793;51.148;6.948;2023-05-07T15:57:20;15.23;;;5.03;;
36863;SDS011;22793;51.148;6.948;2023-05-07T15:59:47;6.60;;;4.90;;
36863;SDS011;22793;51.148;6.948;2023-05-07T16:02:12;7.57;;;4.70;;
36863;SDS011;22793;51.148;6.948;2023-05-07T16:04:38;5.47;;;3.70;;
36863;SDS011;22793;51.148;6.948;2023-05-07T16:07:04;9.53;;;4.00;;
36863;SDS011;22793;51.148;6.948;2023-05-07T16:09:30;8.50;;;4.80;;
36863;SDS011;22793;51.148;6.948;2023-05-07T16:11:55;11.77;;;5.17;;
36863;SDS011;22793;51.148;6.948;2023-05-07T16:14:21;6.53;;;4.63;;
36863;SDS011;22793;51.148;6.948;2023-05-07T16:16:48;6.33;;;4.93;;
36863;SDS011;22793;51.148;6.948;2023-05-07T16:19:13;11.13;;;4.70;;
36863;SDS011;22793;51.148;6.948;2023-05-07T16:21:39;7.00;;;4.60;;
36863;SDS011;22793;51.148;6.948;2023-05-07T16:24:05;5.33;;;3.73;;
36863;SDS011;22793;51.148;6.948;2023-05-07T16:26:30;5.83;;;4.30;;
36863;SDS011;22793;51.148;6.948;2023-05-07T16:28:56;5.77;;;4.57;;
36863;SDS011;22793;51.148;6.948;2023-05-07T16:31:22;5.83;;;3.90;;
36863;SDS011;22793;51.148;6.948;2023-05-07T16:33:49;6.73;;;4.33;;
36863;SDS011;22793;51.148;6.948;2023-05-07T16:36:15;5.63;;;4.40;;
36863;SDS011;22793;51.148;6.948;2023-05-07T16:38:41;5.27;;;4.13;;
36863;SDS011;22793;51.148;6.948;2023-05-07T16:41:06;6.03;;;4.33;;
36863;SDS011;22793;51.148;6.948;2023-05-07T16:43:35;7.73;;;4.27;;
36863;SDS011;22793;51.148;6.948;2023-05-07T16:46:03;4.80;;;4.20;;
36863;SDS011;22793;51.148;6.948;2023-05-07T16:48:29;6.30;;;4.60;;
36863;SDS011;22793;51.148;6.948;2023-05-07T16:50:54;5.63;;;4.13;;
36863;SDS011;22793;51.148;6.948;2023-05-07T16:53:22;6.20;;;4.47;;
36863;SDS011;22793;51.148;6.948;2023-05-07T16:55:47;6.63;;;4.27;;
36863;SDS011;22793;51.148;6.948;2023-05-07T16:58:13;6.53;;;4.10;;
36863;SDS011;22793;51.148;6.948;2023-05-07T17:00:39;6.67;;;4.30;;
36863;SDS011;22793;51.148;6.948;2023-05-07T17:03:05;7.27;;;4.50;;
36863;SDS011;22793;51.148;6.948;2023-05-07T17:05:30;6.10;;;4.20;;
36863;SDS011;22793;51.148;6.948;2023-05-07T17:07:56;6.83;;;4.27;;
36863;SDS011;22793;51.148;6.948;2023-05-07T17:10:22;5.53;;;4.30;;
36863;SDS011;22793;51.148;6.948;2023-05-07T17:12:49;4.37;;;3.73;;
36863;SDS011;22793;51.148;6.948;2023-05-07T17:15:15;4.93;;;3.77;;
36863;SDS011;22793;51.148;6.948;2023-05-07T17:17:40;8.30;;;4.70;;
36863;SDS011;22793;51.148;6.948;2023-05-07T17:20:06;10.70;;;5.47;;
36863;SDS011;22793;51.148;6.948;2023-05-07T17:22:32;390.23;;;55.73;;
36863;SDS011;22793;51.148;6.948;2023-05-07T17:24:58;403.70;;;343.70;;
36863;SDS011;22793;51.148;6.948;2023-05-07T17:27:25;1343.37;;;733.63;;
36863;SDS011;22793;51.148;6.948;2023-05-07T17:29:50;1124.93;;;511.10;;
36863;SDS011;22793;51.148;6.948;2023-05-07T17:32:16;1999.90;;;668.87;;
36863;SDS011;22793;51.148;6.948;2023-05-07T17:34:42;1999.90;;;999.90;;
36863;SDS011;22793;51.148;6.948;2023-05-07T17:37:07;444.60;;;212.60;;
36863;SDS011;22793;51.148;6.948;2023-05-07T17:39:33;296.87;;;146.43;;
36863;SDS011;22793;51.148;6.948;2023-05-07T17:41:59;290.60;;;139.67;;
36863;SDS011;22793;51.148;6.948;2023-05-07T17:44:24;228.77;;;97.37;;
36863;SDS011;22793;51.148;6.948;2023-05-07T17:46:50;155.77;;;73.30;;
36863;SDS011;22793;51.148;6.948;2023-05-07T17:49:15;168.83;;;77.50;;
36863;SDS011;22793;51.148;6.948;2023-05-07T17:51:41;180.87;;;87.63;;
36863;SDS011;22793;51.148;6.948;2023-05-07T17:54:07;193.43;;;87.07;;
36863;SDS011;22793;51.148;6.948;2023-05-07T17:56:33;182.37;;;88.27;;
36863;SDS011;22793;51.148;6.948;2023-05-07T17:58:59;174.00;;;88.83;;
36863;SDS011;22793;51.148;6.948;2023-05-07T18:01:24;189.20;;;86.33;;
36863;SDS011;22793;51.148;6.948;2023-05-07T18:03:50;172.17;;;85.07;;
36863;SDS011;22793;51.148;6.948;2023-05-07T18:06:15;162.67;;;77.80;;
36863;SDS011;22793;51.148;6.948;2023-05-07T18:08:45;152.10;;;73.10;;
36863;SDS011;22793;51.148;6.948;2023-05-07T18:11:12;143.83;;;69.97;;
36863;SDS011;22793;51.148;6.948;2023-05-07T18:13:37;132.80;;;68.70;;
36863;SDS011;22793;51.148;6.948;2023-05-07T18:16:03;117.80;;;63.80;;
36863;SDS011;22793;51.148;6.948;2023-05-07T18:18:29;107.40;;;53.67;;
36863;SDS011;22793;51.148;6.948;2023-05-07T18:20:56;83.80;;;38.07;;
36863;SDS011;22793;51.148;6.948;2023-05-07T18:23:25;68.13;;;33.07;;
36863;SDS011;22793;51.148;6.948;2023-05-07T18:25:50;66.13;;;33.50;;
36863;SDS011;22793;51.148;6.948;2023-05-07T18:28:16;67.80;;;34.17;;
36863;SDS011;22793;51.148;6.948;2023-05-07T18:30:42;64.40;;;36.77;;
36863;SDS011;22793;51.148;6.948;2023-05-07T18:33:07;66.80;;;37.93;;
36863;SDS011;22793;51.148;6.948;2023-05-07T18:35:33;68.03;;;34.23;;
36863;SDS011;22793;51.148;6.948;2023-05-07T18:38:01;60.13;;;34.53;;
36863;SDS011;22793;51.148;6.948;2023-05-07T18:40:29;52.30;;;29.37;;
36863;SDS011;22793;51.148;6.948;2023-05-07T18:42:55;52.53;;;28.37;;
36863;SDS011;22793;51.148;6.948;2023-05-07T18:45:30;54.77;;;28.77;;
36863;SDS011;22793;51.148;6.948;2023-05-07T18:47:57;52.73;;;26.43;;
36863;SDS011;22793;51.148;6.948;2023-05-07T18:50:23;46.57;;;25.83;;
36863;SDS011;22793;51.148;6.948;2023-05-07T18:52:49;44.67;;;23.67;;
36863;SDS011;22793;51.148;6.948;2023-05-07T18:55:14;43.43;;;22.53;;
36863;SDS011;22793;51.148;6.948;2023-05-07T18:57:40;41.37;;;22.30;;
36863;SDS011;22793;51.148;6.948;2023-05-07T19:00:08;32.87;;;21.93;;
36863;SDS011;22793;51.148;6.948;2023-05-07T19:02:36;38.20;;;21.00;;
36863;SDS011;22793;51.148;6.948;2023-05-07T19:05:02;32.03;;;20.03;;
36863;SDS011;22793;51.148;6.948;2023-05-07T19:07:28;37.00;;;20.17;;
36863;SDS011;22793;51.148;6.948;2023-05-07T19:09:54;33.00;;;17.93;;
36863;SDS011;22793;51.148;6.948;2023-05-07T19:12:20;27.33;;;17.63;;
36863;SDS011;22793;51.148;6.948;2023-05-07T19:14:46;30.17;;;17.13;;
36863;SDS011;22793;51.148;6.948;2023-05-07T19:17:12;26.53;;;17.07;;
36863;SDS011;22793;51.148;6.948;2023-05-07T19:19:38;28.23;;;16.47;;
36863;SDS011;22793;51.148;6.948;2023-05-07T19:22:04;28.23;;;16.40;;
36863;SDS011;22793;51.148;6.948;2023-05-07T19:24:29;26.87;;;15.97;;
36863;SDS011;22793;51.148;6.948;2023-05-07T19:26:55;24.03;;;14.33;;
36863;SDS011;22793;51.148;6.948;2023-05-07T19:29:21;24.83;;;14.00;;
36863;SDS011;22793;51.148;6.948;2023-05-07T19:31:46;25.37;;;14.43;;
36863;SDS011;22793;51.148;6.948;2023-05-07T19:34:12;23.27;;;13.80;;
36863;SDS011;22793;51.148;6.948;2023-05-07T19:36:37;22.73;;;13.83;;
36863;SDS011;22793;51.148;6.948;2023-05-07T19:39:03;23.80;;;14.00;;
36863;SDS011;22793;51.148;6.948;2023-05-07T19:43:32;21.33;;;13.47;;
36863;SDS011;22793;51.148;6.948;2023-05-07T19:46:02;23.53;;;13.20;;
36863;SDS011;22793;51.148;6.948;2023-05-07T19:48:28;20.47;;;11.77;;
36863;SDS011;22793;51.148;6.948;2023-05-07T19:50:54;23.73;;;11.70;;
36863;SDS011;22793;51.148;6.948;2023-05-07T19:53:20;22.43;;;10.80;;
36863;SDS011;22793;51.148;6.948;2023-05-07T19:55:45;17.63;;;10.47;;
36863;SDS011;22793;51.148;6.948;2023-05-07T19:58:11;14.23;;;9.37;;
36863;SDS011;22793;51.148;6.948;2023-05-07T20:00:37;14.23;;;9.97;;
36863;SDS011;22793;51.148;6.948;2023-05-07T20:03:03;12.27;;;9.50;;
36863;SDS011;22793;51.148;6.948;2023-05-07T20:05:28;14.07;;;9.07;;
36863;SDS011;22793;51.148;6.948;2023-05-07T20:07:54;14.03;;;9.07;;
36863;SDS011;22793;51.148;6.948;2023-05-07T20:10:20;13.57;;;8.87;;
36863;SDS011;22793;51.148;6.948;2023-05-07T20:12:46;14.43;;;7.80;;
36863;SDS011;22793;51.148;6.948;2023-05-07T20:15:12;14.73;;;8.60;;
36863;SDS011;22793;51.148;6.948;2023-05-07T20:17:38;16.23;;;7.90;;
36863;SDS011;22793;51.148;6.948;2023-05-07T20:20:03;11.13;;;7.73;;
36863;SDS011;22793;51.148;6.948;2023-05-07T20:22:30;11.63;;;8.23;;
36863;SDS011;22793;51.148;6.948;2023-05-07T20:24:56;11.43;;;7.07;;
36863;SDS011;22793;51.148;6.948;2023-05-07T20:27:21;11.07;;;7.90;;
36863;SDS011;22793;51.148;6.948;2023-05-07T20:29:49;10.20;;;7.07;;
36863;SDS011;22793;51.148;6.948;2023-05-07T20:32:15;9.30;;;7.07;;
36863;SDS011;22793;51.148;6.948;2023-05-07T20:34:43;11.53;;;6.90;;
36863;SDS011;22793;51.148;6.948;2023-05-07T20:37:09;11.30;;;7.37;;
36863;SDS011;22793;51.148;6.948;2023-05-07T20:39:38;10.03;;;7.23;;
36863;SDS011;22793;51.148;6.948;2023-05-07T20:42:06;10.40;;;7.10;;
36863;SDS011;22793;51.148;6.948;2023-05-07T20:44:32;11.17;;;7.00;;
36863;SDS011;22793;51.148;6.948;2023-05-07T20:46:58;12.67;;;6.90;;
36863;SDS011;22793;51.148;6.948;2023-05-07T20:49:24;13.20;;;7.00;;
36863;SDS011;22793;51.148;6.948;2023-05-07T20:51:49;11.67;;;7.00;;
36863;SDS011;22793;51.148;6.948;2023-05-07T20:54:16;8.40;;;7.23;;
36863;SDS011;22793;51.148;6.948;2023-05-07T20:56:42;10.73;;;6.83;;
36863;SDS011;22793;51.148;6.948;2023-05-07T20:59:07;9.10;;;6.63;;
36863;SDS011;22793;51.148;6.948;2023-05-07T21:01:33;10.23;;;6.57;;
36863;SDS011;22793;51.148;6.948;2023-05-07T21:03:59;7.87;;;6.37;;
36863;SDS011;22793;51.148;6.948;2023-05-07T21:06:25;9.67;;;7.30;;
36863;SDS011;22793;51.148;6.948;2023-05-07T21:08:51;10.43;;;7.07;;
36863;SDS011;22793;51.148;6.948;2023-05-07T21:11:17;11.73;;;6.70;;
36863;SDS011;22793;51.148;6.948;2023-05-07T21:13:43;9.57;;;6.43;;
36863;SDS011;22793;51.148;6.948;2023-05-07T21:16:08;12.20;;;7.40;;
36863;SDS011;22793;51.148;6.948;2023-05-07T21:18:35;13.10;;;6.90;;
36863;SDS011;22793;51.148;6.948;2023-05-07T21:21:00;8.67;;;6.77;;
36863;SDS011;22793;51.148;6.948;2023-05-07T21:23:30;10.38;;;7.20;;
36863;SDS011;22793;51.148;6.948;2023-05-07T21:25:56;9.50;;;5.80;;
36863;SDS011;22793;51.148;6.948;2023-05-07T21:28:21;10.27;;;6.33;;
36863;SDS011;22793;51.148;6.948;2023-05-07T21:30:47;12.17;;;6.77;;
36863;SDS011;22793;51.148;6.948;2023-05-07T21:33:12;11.57;;;6.57;;
36863;SDS011;22793;51.148;6.948;2023-05-07T21:35:38;7.67;;;6.50;;
36863;SDS011;22793;51.148;6.948;2023-05-07T21:38:03;12.00;;;5.50;;
36863;SDS011;22793;51.148;6.948;2023-05-07T21:40:29;9.30;;;5.97;;
36863;SDS011;22793;51.148;6.948;2023-05-07T21:42:57;8.67;;;6.23;;
36863;SDS011;22793;51.148;6.948;2023-05-07T21:45:24;7.37;;;5.90;;
36863;SDS011;22793;51.148;6.948;2023-05-07T21:47:49;9.63;;;5.70;;
36863;SDS011;22793;51.148;6.948;2023-05-07T21:50:15;9.73;;;6.50;;
36863;SDS011;22793;51.148;6.948;2023-05-07T21:52:41;7.90;;;5.57;;
36863;SDS011;22793;51.148;6.948;2023-05-07T21:55:07;9.27;;;6.23;;
36863;SDS011;22793;51.148;6.948;2023-05-07T21:57:33;8.63;;;6.40;;
36863;SDS011;22793;51.148;6.948;2023-05-07T22:00:00;7.77;;;5.60;;
36863;SDS011;22793;51.148;6.948;2023-05-07T22:02:26;8.93;;;6.00;;
36863;SDS011;22793;51.148;6.948;2023-05-07T22:04:51;9.17;;;5.90;;
36863;SDS011;22793;51.148;6.948;2023-05-07T22:07:17;8.23;;;5.47;;
36863;SDS011;22793;51.148;6.948;2023-05-07T22:09:42;7.27;;;5.87;;
36863;SDS011;22793;51.148;6.948;2023-05-07T22:12:08;9.07;;;6.00;;
36863;SDS011;22793;51.148;6.948;2023-05-07T22:14:33;7.43;;;5.50;;
36863;SDS011;22793;51.148;6.948;2023-05-07T22:16:59;8.37;;;5.77;;
36863;SDS011;22793;51.148;6.948;2023-05-07T22:19:25;8.10;;;5.83;;
36863;SDS011;22793;51.148;6.948;2023-05-07T22:21:50;8.93;;;5.73;;
36863;SDS011;22793;51.148;6.948;2023-05-07T22:24:16;7.43;;;5.87;;
36863;SDS011;22793;51.148;6.948;2023-05-07T22:26:41;9.20;;;6.17;;
36863;SDS011;22793;51.148;6.948;2023-05-07T22:29:07;7.47;;;5.37;;
36863;SDS011;22793;51.148;6.948;2023-05-07T22:31:33;8.33;;;5.87;;
36863;SDS011;22793;51.148;6.948;2023-05-07T22:33:58;7.97;;;5.50;;
36863;SDS011;22793;51.148;6.948;2023-05-07T22:36:25;6.40;;;5.57;;
36863;SDS011;22793;51.148;6.948;2023-05-07T22:38:51;6.93;;;5.33;;
36863;SDS011;22793;51.148;6.948;2023-05-07T22:41:16;6.50;;;5.43;;
36863;SDS011;22793;51.148;6.948;2023-05-07T22:43:42;8.40;;;5.33;;
36863;SDS011;22793;51.148;6.948;2023-05-07T22:46:08;6.90;;;5.10;;
36863;SDS011;22793;51.148;6.948;2023-05-07T22:48:33;8.87;;;5.57;;
36863;SDS011;22793;51.148;6.948;2023-05-07T22:50:59;12.33;;;5.73;;
36863;SDS011;22793;51.148;6.948;2023-05-07T22:53:24;6.37;;;5.10;;
36863;SDS011;22793;51.148;6.948;2023-05-07T22:55:50;6.90;;;4.97;;
36863;SDS011;22793;51.148;6.948;2023-05-07T22:58:16;6.43;;;5.70;;
36863;SDS011;22793;51.148;6.948;2023-05-07T23:00:41;7.10;;;5.53;;
36863;SDS011;22793;51.148;6.948;2023-05-07T23:03:07;7.30;;;5.37;;
36863;SDS011;22793;51.148;6.948;2023-05-07T23:05:33;7.57;;;5.73;;
36863;SDS011;22793;51.148;6.948;2023-05-07T23:07:58;7.10;;;5.67;;
36863;SDS011;22793;51.148;6.948;2023-05-07T23:10:24;8.43;;;5.90;;
36863;SDS011;22793;51.148;6.948;2023-05-07T23:12:50;7.30;;;5.30;;
36863;SDS011;22793;51.148;6.948;2023-05-07T23:15:15;10.17;;;6.00;;
36863;SDS011;22793;51.148;6.948;2023-05-07T23:17:42;6.50;;;5.53;;
36863;SDS011;22793;51.148;6.948;2023-05-07T23:20:09;6.57;;;5.53;;
36863;SDS011;22793;51.148;6.948;2023-05-07T23:22:35;7.30;;;5.37;;
36863;SDS011;22793;51.148;6.948;2023-05-07T23:25:00;6.80;;;5.33;;
36863;SDS011;22793;51.148;6.948;2023-05-07T23:27:26;6.63;;;5.53;;
36863;SDS011;22793;51.148;6.948;2023-05-07T23:29:52;7.53;;;5.33;;
36863;SDS011;22793;51.148;6.948;2023-05-07T23:32:17;6.37;;;5.43;;
36863;SDS011;22793;51.148;6.948;2023-05-07T23:34:43;8.10;;;5.53;;
36863;SDS011;22793;51.148;6.948;2023-05-07T23:37:13;7.60;;;5.03;;
36863;SDS011;22793;51.148;6.948;2023-05-07T23:39:38;6.20;;;5.00;;
36863;SDS011;22793;51.148;6.948;2023-05-07T23:42:04;5.63;;;4.90;;
36863;SDS011;22793;51.148;6.948;2023-05-07T23:44:29;6.97;;;4.97;;
36863;SDS011;22793;51.148;6.948;2023-05-07T23:46:55;6.57;;;4.80;;
36863;SDS011;22793;51.148;6.948;2023-05-07T23:49:21;6.07;;;4.73;;
36863;SDS011;22793;51.148;6.948;2023-05-07T23:51:46;7.37;;;5.43;;
36863;SDS011;22793;51.148;6.948;2023-05-07T23:54:12;6.03;;;5.23;;
36863;SDS011;22793;51.148;6.948;2023-05-07T23:56:38;7.67;;;4.80;;
36863;SDS011;22793;51.148;6.948;2023-05-07T23:59:03;5.80;;;4.77;;
